createdAt,value
2022-08-25T00:00:01.538Z,14.64
2022-08-25T00:05:03.548Z,14.64
2022-08-25T00:10:04.654Z,14.82
2022-08-25T00:15:03.845Z,15.00
2022-08-25T00:20:04.967Z,14.01
2022-08-25T00:25:05.144Z,14.36
2022-08-25T00:30:06.224Z,14.36
2022-08-25T00:35:07.358Z,14.36
2022-08-25T00:40:09.524Z,14.36
2022-08-25T00:45:08.684Z,14.53
2022-08-25T00:50:10.829Z,14.36
2022-08-25T00:55:09.926Z,14.70
2022-08-25T01:00:11.117Z,14.20
2022-08-25T01:05:12.237Z,14.20
2022-08-25T01:10:14.337Z,14.20
2022-08-25T01:15:13.464Z,14.20
2022-08-25T01:20:14.928Z,14.04
2022-08-25T01:25:14.068Z,14.04
2022-08-25T01:30:15.293Z,14.20
2022-08-25T01:35:17.389Z,14.37
2022-08-25T01:40:17.547Z,14.20
2022-08-25T01:45:16.652Z,14.20
2022-08-25T01:50:17.797Z,14.20
2022-08-25T01:55:18.925Z,14.20
2022-08-25T02:00:19.125Z,14.20
2022-08-25T02:05:23.551Z,14.20
2022-08-25T02:10:20.872Z,14.20
2022-08-25T02:15:22.055Z,14.20
2022-08-25T02:20:23.350Z,14.20
2022-08-25T02:25:25.460Z,14.20
2022-08-25T02:30:24.622Z,14.37
2022-08-25T02:35:26.915Z,14.37
2022-08-25T02:40:26.182Z,13.37
2022-08-25T02:45:27.348Z,13.37
2022-08-25T02:50:28.495Z,13.53
2022-08-25T02:55:29.668Z,13.53
2022-08-25T03:00:31.786Z,13.53
2022-08-25T03:05:31.313Z,13.53
2022-08-25T03:10:33.438Z,13.69
2022-08-25T03:15:32.543Z,13.69
2022-08-25T03:20:33.702Z,13.53
2022-08-25T03:25:35.863Z,13.53
2022-08-25T03:30:34.971Z,13.53
2022-08-25T03:35:36.137Z,13.69
2022-08-25T03:40:37.332Z,13.53
2022-08-25T03:45:39.511Z,13.84
2022-08-25T03:50:40.646Z,13.84
2022-08-25T03:55:39.736Z,13.84
2022-08-25T04:00:41.835Z,13.84
2022-08-25T04:05:41.034Z,13.84
2022-08-25T04:10:43.209Z,13.84
2022-08-25T04:15:43.370Z,13.84
2022-08-25T04:20:46.557Z,13.84
2022-08-25T04:25:43.032Z,13.84
2022-08-25T04:30:42.211Z,12.85
2022-08-25T04:35:43.384Z,13.84
2022-08-25T04:40:46.490Z,13.84
2022-08-25T04:45:45.712Z,13.84
2022-08-25T04:50:47.900Z,13.84
2022-08-25T04:55:48.038Z,13.84
2022-08-25T05:00:47.265Z,13.84
2022-08-25T05:05:49.347Z,13.84
2022-08-25T05:10:50.502Z,13.69
2022-08-25T05:15:50.984Z,13.69
2022-08-25T05:20:50.163Z,13.69
2022-08-25T05:25:52.653Z,13.53
2022-08-25T05:30:51.927Z,13.53
2022-08-25T05:35:53.060Z,14.37
2022-08-25T05:40:54.199Z,14.37
2022-08-25T05:45:56.417Z,14.20
2022-08-25T05:50:55.663Z,15.03
2022-08-25T05:55:58.784Z,14.70
2022-08-25T06:00:57.936Z,14.36
2022-08-25T06:06:00.224Z,15.35
2022-08-25T06:10:59.338Z,15.17
2022-08-25T06:16:00.701Z,14.64
2022-08-25T06:21:02.855Z,15.44
2022-08-25T06:26:02.121Z,15.07
2022-08-25T06:31:03.301Z,15.07
2022-08-25T06:36:05.456Z,15.07
2022-08-25T06:41:04.615Z,14.88
2022-08-25T06:46:05.754Z,15.86
2022-08-25T06:51:06.938Z,15.66
2022-08-25T06:56:08.061Z,15.47
2022-08-25T07:01:13.443Z,15.27
2022-08-25T07:06:09.130Z,15.27
2022-08-25T07:11:12.842Z,15.07
2022-08-25T07:16:11.303Z,16.04
2022-08-25T07:21:12.565Z,15.64
2022-08-25T07:26:36.008Z,15.64
2022-08-25T07:31:14.717Z,15.64
2022-08-25T07:36:13.853Z,14.80
2022-08-25T07:41:14.971Z,14.36
2022-08-25T07:46:17.135Z,15.54
2022-08-25T07:51:16.299Z,15.32
2022-08-25T07:56:17.389Z,15.09
2022-08-25T08:01:19.922Z,15.09
2022-08-25T08:06:19.023Z,14.87
2022-08-25T08:11:20.175Z,15.59
2022-08-25T08:16:19.835Z,15.82
2022-08-25T08:21:21.966Z,15.59
2022-08-25T08:26:22.475Z,15.35
2022-08-25T08:31:22.061Z,15.82
2022-08-25T08:36:21.703Z,15.59
2022-08-25T08:41:23.638Z,15.35
2022-08-25T08:46:22.937Z,16.30
2022-08-25T08:51:23.411Z,16.30
2022-08-25T08:56:30.821Z,16.77
2022-08-25T09:01:24.241Z,16.77
2022-08-25T09:06:27.328Z,16.30
2022-08-25T09:11:26.673Z,16.77
2022-08-25T09:16:31.908Z,16.77
2022-08-25T09:21:27.772Z,16.54
2022-08-25T09:26:28.286Z,16.54
2022-08-25T09:31:30.071Z,17.01
2022-08-25T09:36:36.922Z,16.52
2022-08-25T09:41:28.877Z,16.27
2022-08-25T09:46:30.545Z,16.77
2022-08-25T09:51:38.305Z,16.77
2022-08-25T09:56:30.656Z,16.27
2022-08-25T10:01:32.098Z,16.52
2022-08-25T10:06:29.768Z,16.52
2022-08-25T10:11:30.245Z,16.52
2022-08-25T10:16:35.639Z,16.52
2022-08-25T10:21:29.998Z,15.75
2022-08-25T10:26:34.875Z,16.95
2022-08-25T10:31:34.851Z,17.21
2022-08-25T10:36:34.037Z,16.52
2022-08-25T10:41:32.520Z,17.46
2022-08-25T10:46:33.700Z,17.21
2022-08-25T10:51:35.863Z,16.69
2022-08-25T10:56:35.542Z,17.21
2022-08-25T11:01:43.558Z,17.71
2022-08-25T11:06:36.485Z,17.21
2022-08-25T11:11:36.173Z,17.46
2022-08-25T11:16:34.395Z,17.46
2022-08-25T11:21:37.279Z,17.71
2022-08-25T11:26:37.512Z,17.21
2022-08-25T11:31:36.791Z,18.41
2022-08-25T11:36:38.905Z,18.41
2022-08-25T11:41:39.017Z,18.15
2022-08-25T11:46:40.214Z,18.15
2022-08-25T11:51:42.352Z,18.41
2022-08-25T11:56:43.338Z,17.89
2022-08-25T12:01:42.714Z,18.41
2022-08-25T12:06:45.526Z,18.15
2022-08-25T12:11:45.330Z,17.89
2022-08-25T12:16:46.475Z,17.89
2022-08-25T12:21:48.865Z,17.63
2022-08-25T12:26:48.112Z,18.57
2022-08-25T12:31:49.358Z,18.84
2022-08-25T12:36:51.466Z,18.03
2022-08-25T12:41:50.662Z,18.57
2022-08-25T12:46:51.131Z,18.03
2022-08-25T12:51:50.882Z,17.75
2022-08-25T12:56:52.041Z,17.47
2022-08-25T13:01:54.469Z,18.03
2022-08-25T13:06:53.417Z,17.19
2022-08-25T13:11:53.567Z,17.47
2022-08-25T13:16:53.920Z,17.19
2022-08-25T13:21:55.237Z,17.19
2022-08-25T13:26:56.336Z,16.90
2022-08-25T13:31:56.257Z,16.60
2022-08-25T13:36:58.851Z,18.12
2022-08-25T13:41:56.015Z,17.82
2022-08-25T13:46:58.151Z,17.82
2022-08-25T13:51:57.404Z,17.82
2022-08-25T13:56:59.769Z,16.90
2022-08-25T14:02:01.246Z,16.90
2022-08-25T14:07:00.375Z,17.19
2022-08-25T14:12:01.582Z,17.82
2022-08-25T14:17:16.442Z,18.12
2022-08-25T14:22:03.621Z,17.75
2022-08-25T14:27:03.135Z,18.12
2022-08-25T14:32:05.302Z,17.75
2022-08-25T14:37:05.407Z,18.03
2022-08-25T14:42:05.539Z,18.03
2022-08-25T14:47:05.858Z,18.03
2022-08-25T14:52:05.398Z,18.03
2022-08-25T14:57:08.365Z,18.03
2022-08-25T15:02:05.991Z,18.03
2022-08-25T15:07:07.203Z,18.69
2022-08-25T15:12:07.422Z,18.57
2022-08-25T15:17:07.874Z,18.96
2022-08-25T15:22:09.098Z,18.69
2022-08-25T15:27:10.300Z,18.03
2022-08-25T15:32:09.699Z,18.96
2022-08-25T15:37:12.813Z,18.40
2022-08-25T15:42:11.925Z,18.96
2022-08-25T15:47:13.509Z,18.40
2022-08-25T15:52:13.658Z,18.69
2022-08-25T15:57:24.067Z,18.40
2022-08-25T16:02:18.958Z,18.40
2022-08-25T16:07:14.505Z,18.40
2022-08-25T16:12:16.596Z,18.12
2022-08-25T16:17:16.769Z,18.12
2022-08-25T16:22:17.415Z,18.40
2022-08-25T16:27:19.988Z,18.12
2022-08-25T16:32:18.151Z,18.12
2022-08-25T16:37:17.297Z,18.40
2022-08-25T16:42:18.486Z,18.12
2022-08-25T16:47:20.522Z,19.04
2022-08-25T16:52:19.152Z,18.75
2022-08-25T16:57:19.617Z,18.75
2022-08-25T17:02:18.779Z,18.12
2022-08-25T17:07:23.723Z,18.12
2022-08-25T17:12:19.906Z,19.04
2022-08-25T17:17:20.037Z,18.75
2022-08-25T17:22:20.606Z,19.04
2022-08-25T17:27:20.737Z,18.12
2022-08-25T17:32:20.880Z,18.40
2022-08-25T17:37:20.844Z,18.03
2022-08-25T17:42:21.385Z,18.30
2022-08-25T17:47:20.675Z,18.30
2022-08-25T17:52:25.039Z,18.57
2022-08-25T17:57:22.805Z,18.91
2022-08-25T18:02:26.149Z,18.91
2022-08-25T18:07:25.548Z,17.71
2022-08-25T18:12:27.682Z,18.68
2022-08-25T18:17:26.762Z,18.68
2022-08-25T18:22:29.161Z,18.91
2022-08-25T18:27:28.567Z,18.68
2022-08-25T18:32:29.786Z,17.96
2022-08-25T18:37:30.940Z,18.41
2022-08-25T18:42:32.057Z,18.19
2022-08-25T18:47:33.312Z,17.96
2022-08-25T18:52:34.464Z,18.41
2022-08-25T18:57:38.878Z,17.96
2022-08-25T19:02:35.878Z,17.23
2022-08-25T19:07:40.339Z,17.46
2022-08-25T19:12:37.719Z,17.68
2022-08-25T19:17:38.838Z,17.90
2022-08-25T19:22:41.961Z,17.78
2022-08-25T19:27:39.654Z,17.57
2022-08-25T19:32:41.880Z,17.78
2022-08-25T19:37:43.503Z,17.99
2022-08-25T19:42:43.786Z,18.59
2022-08-25T19:47:43.005Z,18.59
2022-08-25T19:52:44.110Z,18.78
2022-08-25T19:57:46.329Z,17.81
2022-08-25T20:02:45.527Z,18.00
2022-08-25T20:07:45.597Z,18.19
2022-08-25T20:12:46.745Z,18.00
2022-08-25T20:18:34.800Z,18.19
2022-08-25T20:22:48.411Z,17.81
2022-08-25T20:27:51.550Z,17.81
2022-08-25T20:32:50.704Z,17.02
2022-08-25T20:37:53.036Z,17.40
2022-08-25T20:42:53.358Z,17.21
2022-08-25T20:47:54.638Z,17.40
2022-08-25T20:52:53.801Z,17.40
2022-08-25T20:57:56.909Z,17.81
2022-08-25T21:02:56.197Z,17.02
2022-08-25T21:07:58.313Z,17.02
2022-08-25T21:12:57.433Z,17.21
2022-08-25T21:17:58.593Z,17.02
2022-08-25T21:22:59.658Z,17.21
2022-08-25T21:27:58.787Z,17.21
2022-08-25T21:32:59.030Z,17.02
2022-08-25T21:38:00.464Z,17.02
2022-08-25T21:43:00.086Z,17.02
2022-08-25T21:48:01.205Z,17.21
2022-08-25T21:53:02.416Z,16.83
2022-08-25T21:58:04.677Z,16.83
2022-08-25T22:03:03.903Z,16.83
2022-08-25T22:08:06.072Z,16.64
2022-08-25T22:13:06.412Z,16.81
2022-08-25T22:18:05.603Z,16.19
2022-08-25T22:23:08.132Z,16.19
2022-08-25T22:28:08.090Z,16.61
2022-08-25T22:33:09.095Z,16.61
2022-08-25T22:38:12.222Z,16.40
2022-08-25T22:43:10.906Z,15.97
2022-08-25T22:48:10.258Z,16.72
2022-08-25T22:53:11.384Z,16.27
2022-08-25T22:58:12.554Z,16.27
2022-08-25T23:03:12.845Z,16.50
2022-08-25T23:08:12.105Z,16.50
2022-08-25T23:13:33.783Z,16.50
2022-08-25T23:18:14.290Z,16.50
2022-08-25T23:23:15.430Z,16.50
2022-08-25T23:28:16.555Z,16.50
2022-08-25T23:33:18.743Z,15.76
2022-08-25T23:38:23.040Z,15.97
2022-08-25T23:43:20.308Z,15.97
2022-08-25T23:48:20.868Z,15.76
2022-08-25T23:53:20.046Z,15.76
2022-08-25T23:58:21.237Z,15.76
